FW0614 Yonaguni JP current weather conditions

sailwx.info

Wind from 024 at 7 knots gusting 12

Air temperature 29.4° C
Dewpoint 15.5° C

Last reported at 2019-Oct-22 05:09 UTC.
Time now 2019-Oct-22 05:49 UTC

Location: N 24°28' E 123°00'.
View on Google Maps.

See reports from other nearby stations

  
Tides and Currents Weather Stations Pressure Air Temp Water Temp Dewpoint Dewpoint Depression Visibility Wind Speed Wind Dir Waves Ship Positions
date/time (UTC)wind fromknots sea level pressurealtimeterstation pressurevisibilityair tempwater tempwave heightnotes
2019-Oct-22 05:09 024 7 gusting 12 29.4
2019-Oct-22 05:04 022 6 gusting 11 30.0
2019-Oct-22 04:59 011 6 gusting 12 30.0
2019-Oct-22 04:54 036 7 gusting 11 30.0
2019-Oct-22 04:49 008 6 gusting 8 30.0
2019-Oct-22 04:44 038 6 gusting 8 30.0
2019-Oct-22 04:39 035 8 gusting 13 30.0
2019-Oct-22 04:34 015 5 gusting 8 30.6
2019-Oct-22 04:29 016 5 gusting 8 30.0
2019-Oct-22 04:24 347 6 gusting 11 30.0
2019-Oct-22 04:19 024 4 gusting 7 30.6
2019-Oct-22 04:14 001 6 gusting 11 30.0
2019-Oct-22 04:09 022 5 gusting 8 30.0
2019-Oct-22 04:04 027 6 gusting 8 30.6
2019-Oct-22 03:59 017 7 gusting 10 30.0
2019-Oct-22 03:54 350 6 gusting 10 30.6
2019-Oct-22 03:49 015 6 gusting 10 30.0
2019-Oct-22 03:44 002 6 gusting 11 30.0
2019-Oct-22 03:39 022 6 gusting 10 30.0
2019-Oct-22 03:34 034 6 gusting 8 30.0
2019-Oct-22 03:29 003 8 gusting 12 29.4
2019-Oct-22 03:24 023 8 gusting 11 30.0
2019-Oct-22 03:19 011 7 gusting 10 30.0
2019-Oct-22 03:14 022 7 gusting 11 30.0
2019-Oct-22 03:09 345 6 gusting 11 29.4
2019-Oct-22 03:04 030 5 gusting 10 30.0
2019-Oct-22 02:59 029 6 gusting 10 29.4
2019-Oct-22 02:54 030 5 gusting 8 29.4
2019-Oct-22 02:49 357 6 gusting 12 29.4
2019-Oct-22 02:44 026 6 gusting 11 29.4
2019-Oct-22 02:39 022 6 gusting 10 29.4
2019-Oct-22 02:34 030 6 gusting 10 28.9
2019-Oct-22 02:29 022 6 gusting 8 28.9
2019-Oct-22 02:24 006 6 gusting 8 29.4
2019-Oct-22 02:19 025 5 gusting 10 28.9
2019-Oct-22 02:14 354 6 gusting 10 28.9
2019-Oct-22 02:09 002 6 gusting 12 28.9
2019-Oct-22 02:04 28.9
2019-Oct-22 01:59 341 6 gusting 10 28.3
2019-Oct-22 01:54 351 7 gusting 10 28.3
2019-Oct-22 01:49 005 7 gusting 10 28.3
2019-Oct-22 01:44 348 7 gusting 10 28.3
2019-Oct-22 01:39 352 6 gusting 8 28.9
2019-Oct-22 01:34 020 5 gusting 8 28.9
2019-Oct-22 01:29 005 6 gusting 7 28.3
2019-Oct-22 01:24 356 6 gusting 7 28.3
2019-Oct-22 01:19 001 5 gusting 10 27.8
2019-Oct-22 01:14 341 5 gusting 8 27.8
2019-Oct-22 01:09 350 6 gusting 8 27.8
2019-Oct-22 01:04 342 5 gusting 8 27.8
2019-Oct-22 00:59 350 6 gusting 8 27.8
2019-Oct-22 00:54 346 6 gusting 7 27.8
2019-Oct-22 00:49 349 6 gusting 10 27.8
2019-Oct-22 00:44 007 5 gusting 7 27.8
2019-Oct-22 00:39 347 5 gusting 8 27.8
2019-Oct-22 00:34 007 5 gusting 8 27.2
2019-Oct-22 00:29 017 6 gusting 10 27.2
2019-Oct-22 00:24 27.2
2019-Oct-22 00:19 355 6 gusting 12 27.2
2019-Oct-22 00:14 012 6 gusting 10 26.7
2019-Oct-22 00:09 022 6 gusting 8 26.1
2019-Oct-22 00:04 352 5 gusting 8 26.1
2019-Oct-21 23:59 011 6 gusting 10 25.0
2019-Oct-21 23:54 346 6 gusting 10 25.6
2019-Oct-21 23:49 024 6 gusting 10 26.1
2019-Oct-21 23:44 039 4 gusting 7 27.2
2019-Oct-21 23:39 022 4 gusting 7 26.7
2019-Oct-21 23:34 005 4 gusting 6 26.1
2019-Oct-21 23:29 338 4 gusting 5 26.1
2019-Oct-21 23:24 002 2 gusting 6 25.6
2019-Oct-21 23:19 354 5 gusting 8 25.0
2019-Oct-21 23:14 019 4 gusting 6 25.6
2019-Oct-21 23:09 342 4 gusting 6 25.6
2019-Oct-21 23:04 018 5 gusting 6 25.6
2019-Oct-21 22:59 019 3 gusting 7 25.6
2019-Oct-21 22:54 348 5 gusting 6 25.6
2019-Oct-21 22:49 013 5 gusting 6 25.0
2019-Oct-21 22:44 011 5 gusting 8 25.0
2019-Oct-21 22:39 017 6 gusting 10 24.4
2019-Oct-21 22:34 005 6 gusting 7 24.4
2019-Oct-21 22:29 018 5 gusting 7 23.9
2019-Oct-21 22:24 005 5 gusting 7 23.9
2019-Oct-21 22:19 028 5 gusting 6 23.9
2019-Oct-21 22:14 009 6 gusting 10 23.9
2019-Oct-21 22:09 23.9
2019-Oct-21 22:04 012 5 gusting 7 23.9
2019-Oct-21 21:59 022 6 gusting 8 23.9
2019-Oct-21 21:54 009 5 gusting 6 23.9
2019-Oct-21 21:49 022 6 gusting 8 23.9
2019-Oct-21 21:44 016 6 gusting 7 23.9
2019-Oct-21 21:39 009 5 gusting 7 23.9
2019-Oct-21 21:34 009 5 gusting 10 23.9
2019-Oct-21 21:29 012 5 gusting 8 23.9
2019-Oct-21 21:24 001 2 gusting 6 23.9
2019-Oct-21 21:19 359 4 gusting 6 23.9
2019-Oct-21 21:14 359 4 gusting 6 23.9
2019-Oct-21 21:09 341 2 gusting 6 23.9
2019-Oct-21 21:04 358 4 gusting 6 23.9
2019-Oct-21 20:59 019 5 gusting 7 23.9
2019-Oct-21 20:54 23.3
2019-Oct-21 20:49 014 5 gusting 6 23.3
2019-Oct-21 20:44 028 5 gusting 7 23.3
2019-Oct-21 20:39 342 5 gusting 7 23.3
2019-Oct-21 20:34 022 4 gusting 6 23.3
2019-Oct-21 20:29 003 4 gusting 6 23.3
2019-Oct-21 20:24 013 4 gusting 6 23.3
2019-Oct-21 20:19 026 4 gusting 6 23.3
2019-Oct-21 20:14 338 2 gusting 5 23.3
2019-Oct-21 20:09 011 5 gusting 7 23.3
2019-Oct-21 20:04 342 4 gusting 6 23.3
2019-Oct-21 19:59 354 5 gusting 7 23.3
2019-Oct-21 19:54 008 6 gusting 10 23.3
2019-Oct-21 19:49 004 4 gusting 7 23.3
2019-Oct-21 19:44 355 6 gusting 8 23.3
2019-Oct-21 19:39 352 5 gusting 7 23.3
2019-Oct-21 19:34 338 4 gusting 6 23.3
2019-Oct-21 19:29 011 6 gusting 7 23.3
2019-Oct-21 19:24 003 6 gusting 8 23.3
2019-Oct-21 19:19 358 3 gusting 6 23.3
2019-Oct-21 19:14 338 4 gusting 6 23.3
2019-Oct-21 19:09 014 4 gusting 6 23.3
2019-Oct-21 19:04 007 4 gusting 7 23.3
2019-Oct-21 18:59 350 5 gusting 6 23.3
2019-Oct-21 18:54 050 5 gusting 6 23.3
2019-Oct-21 18:49 022 5 gusting 10 23.3
2019-Oct-21 18:44 348 5 gusting 7 23.3
2019-Oct-21 18:39 007 5 gusting 6 23.3
2019-Oct-21 18:34 005 4 gusting 6 23.3
2019-Oct-21 18:29 003 2 gusting 6 23.3
2019-Oct-21 18:24 016 5 gusting 7 23.3
2019-Oct-21 18:19 351 5 gusting 7 23.3
2019-Oct-21 18:14 022 2 gusting 5 23.3
2019-Oct-21 18:09 036 4 gusting 7 23.3
2019-Oct-21 18:04 029 4 gusting 6 23.3
2019-Oct-21 17:59 022 3 gusting 6 23.3
2019-Oct-21 17:54 018 4 gusting 6 23.3
2019-Oct-21 17:49 022 5 gusting 6 23.3
2019-Oct-21 17:19 022 5 gusting 6 23.3
2019-Oct-21 17:14 001 5 gusting 7 23.3
2019-Oct-21 17:09 009 4 gusting 6 23.3
2019-Oct-21 17:04 022 4 gusting 6 23.3
2019-Oct-21 16:59 008 4 gusting 6 23.3
2019-Oct-21 16:54 022 2 gusting 7 23.9
2019-Oct-21 16:49 037 4 gusting 7 23.9
2019-Oct-21 16:44 036 4 gusting 6 23.9
2019-Oct-21 16:39 030 5 gusting 6 23.9
2019-Oct-21 16:34 006 5 gusting 7 23.9
2019-Oct-21 16:29 026 5 gusting 6 23.9
2019-Oct-21 16:24 026 6 gusting 10 23.9
2019-Oct-21 16:19 024 4 gusting 7 23.9
2019-Oct-21 16:14 022 5 gusting 10 23.9
2019-Oct-21 16:09 008 2 gusting 6 23.9
2019-Oct-21 16:04 024 4 gusting 7 23.9
2019-Oct-21 15:59 011 5 gusting 7 23.9
2019-Oct-21 15:54 022 3 gusting 6 23.9
2019-Oct-21 15:49 022 3 gusting 6 23.9
2019-Oct-21 15:44 012 6 gusting 8 23.9
2019-Oct-21 15:39 020 5 gusting 10 23.9
2019-Oct-21 15:34 012 4 gusting 10 23.9
2019-Oct-21 15:29 020 6 gusting 10 23.9
2019-Oct-21 15:24 338 4 gusting 7 23.9
2019-Oct-21 15:19 005 4 gusting 6 23.9
2019-Oct-21 15:14 011 6 gusting 7 23.9
2019-Oct-21 15:09 015 2 gusting 6 23.9
2019-Oct-21 15:04 036 5 gusting 7 23.9
2019-Oct-21 14:59 038 5 gusting 7 23.9
2019-Oct-21 14:54 036 5 gusting 7 24.4
2019-Oct-21 14:49 027 4 gusting 6 24.4
2019-Oct-21 14:44 022 5 gusting 8 24.4
2019-Oct-21 14:39 23.9
2019-Oct-21 14:34 038 4 gusting 7 23.9
2019-Oct-21 14:29 023 6 gusting 8 23.9
2019-Oct-21 14:24 015 6 gusting 8 23.9
2019-Oct-21 14:19 026 6 gusting 7 24.4
2019-Oct-21 14:14 022 6 gusting 7 24.4
2019-Oct-21 14:09 015 4 gusting 6 24.4
2019-Oct-21 14:04 029 5 gusting 7 24.4
2019-Oct-21 13:59 022 5 gusting 8 24.4
2019-Oct-21 13:54 031 6 gusting 8 24.4
2019-Oct-21 13:49 034 6 gusting 7 24.4
2019-Oct-21 13:44 016 4 gusting 7 24.4
2019-Oct-21 13:39 027 5 gusting 10 24.4
2019-Oct-21 13:34 022 5 gusting 10 24.4
2019-Oct-21 13:29 017 6 gusting 10 24.4
2019-Oct-21 13:24 037 4 gusting 8 24.4
2019-Oct-21 13:19 009 5 gusting 8 24.4
2019-Oct-21 13:14 038 6 gusting 11 24.4
2019-Oct-21 13:09 011 4 gusting 8 24.4
2019-Oct-21 13:04 008 5 gusting 8 24.4
2019-Oct-21 12:59 015 6 gusting 11 24.4
2019-Oct-21 12:54 019 6 gusting 10 24.4
2019-Oct-21 12:49 046 5 gusting 10 24.4
2019-Oct-21 12:44 022 6 gusting 12 24.4
2019-Oct-21 12:39 348 5 gusting 8 24.4
2019-Oct-21 12:34 029 6 gusting 8 24.4
2019-Oct-21 12:29 024 6 gusting 7 24.4
2019-Oct-21 12:24 008 6 gusting 10 24.4
2019-Oct-21 12:19 24.4
2019-Oct-21 12:14 357 6 gusting 10 24.4
2019-Oct-21 12:09 013 6 gusting 11 24.4
2019-Oct-21 12:04 351 7 gusting 12 24.4
2019-Oct-21 11:59 349 7 gusting 11 24.4
2019-Oct-21 11:54 025 6 gusting 12 24.4
2019-Oct-21 11:49 020 7 gusting 11 24.4
2019-Oct-21 11:44 013 6 gusting 10 24.4
2019-Oct-21 11:39 017 7 gusting 12 24.4
2019-Oct-21 11:34 029 6 gusting 12 24.4
2019-Oct-21 11:29 033 5 gusting 12 24.4
2019-Oct-21 11:24 015 6 gusting 12 24.4
2019-Oct-21 11:19 030 5 gusting 10 24.4
2019-Oct-21 11:14 034 6 gusting 12 24.4
2019-Oct-21 11:09 041 6 gusting 11 24.4
2019-Oct-21 11:04 022 7 gusting 8 24.4
2019-Oct-21 10:59 025 7 gusting 11 24.4
2019-Oct-21 10:54 025 8 gusting 12 24.4
2019-Oct-21 10:49 026 6 gusting 8 24.4
2019-Oct-21 10:44 026 5 gusting 8 24.4
2019-Oct-21 10:39 020 6 gusting 8 24.4
2019-Oct-21 10:34 012 6 gusting 10 24.4
2019-Oct-21 10:29 013 7 gusting 10 24.4
2019-Oct-21 10:24 017 6 gusting 10 24.4
2019-Oct-21 10:19 013 6 gusting 8 24.4
2019-Oct-21 10:14 009 8 gusting 13 24.4
2019-Oct-21 10:09 022 7 gusting 12 24.4
2019-Oct-21 10:04 004 6 gusting 11 24.4
2019-Oct-21 09:59 031 6 gusting 10 24.4
2019-Oct-21 09:54 029 6 gusting 10 24.4
2019-Oct-21 09:49 015 6 gusting 10 24.4
2019-Oct-21 09:44 003 6 gusting 10 24.4
2019-Oct-21 09:39 029 6 gusting 12 24.4
2019-Oct-21 09:34 021 6 gusting 10 25.0
2019-Oct-21 09:29 002 7 gusting 12 25.0
2019-Oct-21 09:24 017 6 gusting 10 25.0
2019-Oct-21 09:19 020 7 gusting 12 25.0
2019-Oct-21 09:14 005 7 gusting 12 25.0
2019-Oct-21 09:09 25.0
2019-Oct-21 09:04 014 6 gusting 12 25.0
2019-Oct-21 08:59 030 6 gusting 10 25.0
2019-Oct-21 08:54 016 6 gusting 12 25.0
2019-Oct-21 08:49 004 8 gusting 13 25.0
2019-Oct-21 08:44 015 6 gusting 10 25.0
2019-Oct-21 08:39 025 6 gusting 12 25.6
2019-Oct-21 08:34 025 6 gusting 10 25.6
2019-Oct-21 08:29 025 6 gusting 12 25.6
2019-Oct-21 08:24 011 7 gusting 12 25.6
2019-Oct-21 08:19 024 5 gusting 10 25.6
2019-Oct-21 08:14 016 7 gusting 12 25.6
2019-Oct-21 08:09 004 7 gusting 13 26.1
2019-Oct-21 08:04 355 8 gusting 11 26.1
2019-Oct-21 07:59 015 6 gusting 11 26.1
2019-Oct-21 07:54 036 7 gusting 11 26.1
2019-Oct-21 07:49 022 7 gusting 12 26.1
2019-Oct-21 07:44 345 7 gusting 11 26.1
2019-Oct-21 07:39 356 6 gusting 11 26.1
2019-Oct-21 07:34 012 7 gusting 12 26.1
2019-Oct-21 07:29 016 6 gusting 10 26.7
2019-Oct-21 07:24 003 7 gusting 12 27.2
2019-Oct-21 07:19 001 6 gusting 12 27.2
2019-Oct-21 07:14 029 8 gusting 12 27.2
2019-Oct-21 07:09 005 6 gusting 11 27.8
2019-Oct-21 07:04 039 5 gusting 10 27.2
2019-Oct-21 06:59 021 7 gusting 12 26.7
2019-Oct-21 06:54 003 7 gusting 12 26.7
2019-Oct-21 06:49 356 6 gusting 11 26.7
2019-Oct-21 06:44 022 6 gusting 11 26.7
2019-Oct-21 06:39 020 7 gusting 13 27.2
2019-Oct-21 06:34 006 7 gusting 12 27.2
2019-Oct-21 06:29 022 7 gusting 11 27.8
2019-Oct-21 06:24 013 7 gusting 11 28.3
2019-Oct-21 06:19 020 7 gusting 10 27.8
2019-Oct-21 06:14 012 7 gusting 12 27.2
2019-Oct-21 06:09 004 8 gusting 12 28.3
2019-Oct-21 06:04 017 7 gusting 12 28.3
2019-Oct-21 05:59 015 6 gusting 12 27.8
2019-Oct-21 05:54 009 6 gusting 12 27.2
2019-Oct-21 05:49 049 7 gusting 11 27.8
2019-Oct-21 05:44 013 7 gusting 13 27.2
2019-Oct-21 05:39 008 7 gusting 11 27.2
2019-Oct-21 05:34 022 7 gusting 13 27.2
2019-Oct-21 05:29 028 8 gusting 12 27.8
2019-Oct-21 05:24 357 8 gusting 12 28.3
2019-Oct-21 05:19 022 7 gusting 11 27.8
2019-Oct-21 05:14 003 7 gusting 13 27.2
2019-Oct-21 05:09 012 7 gusting 12 27.8
2019-Oct-21 05:04 001 7 gusting 11 28.3
2019-Oct-21 04:59 350 8 gusting 13 28.3
2019-Oct-21 04:54 002 7 gusting 13 28.3
2019-Oct-21 04:49 341 6 gusting 13 29.4
2019-Oct-21 04:44 28.9
2019-Oct-21 04:39 027 6 gusting 11 28.9
2019-Oct-21 04:34 014 8 gusting 12 28.9
2019-Oct-21 04:29 014 8 gusting 13 28.9
2019-Oct-21 04:24 013 8 gusting 12 28.9
2019-Oct-21 04:19 352 8 gusting 11 28.3
2019-Oct-21 04:14 022 9 gusting 13 27.8
2019-Oct-21 04:09 355 7 gusting 13 28.3
2019-Oct-21 04:04 015 6 gusting 11 28.9
2019-Oct-21 03:59 338 8 gusting 12 28.3
2019-Oct-21 03:54 015 7 gusting 12 28.3
2019-Oct-21 03:49 354 7 gusting 13 29.4
2019-Oct-21 03:44 011 6 gusting 11 28.9
2019-Oct-21 03:39 001 7 gusting 12 28.9
2019-Oct-21 03:34 28.9
2019-Oct-21 03:29 012 7 gusting 12 28.9
2019-Oct-21 03:24 006 8 gusting 12 28.9
2019-Oct-21 03:19 018 8 gusting 12 28.9
2019-Oct-21 03:14 28.3
2019-Oct-21 03:09 358 7 gusting 13 28.9
2019-Oct-21 03:04 353 7 gusting 11 28.9
2019-Oct-21 02:59 015 10 gusting 13 28.3
2019-Oct-21 02:54 031 7 gusting 12 28.3
2019-Oct-21 02:49 357 7 gusting 12 28.3
2019-Oct-21 02:44 003 8 gusting 12 27.8
2019-Oct-21 02:39 015 10 gusting 13 27.8
2019-Oct-21 02:34 356 8 gusting 12 28.3
2019-Oct-21 02:29 002 7 gusting 15 27.8
2019-Oct-21 02:24 010 10 gusting 13 27.2
2019-Oct-21 02:19 011 10 gusting 13 27.8
2019-Oct-21 02:14 349 8 gusting 15 27.8
2019-Oct-21 02:09 002 8 gusting 12 28.3
2019-Oct-21 02:04 338 8 gusting 12 28.3
2019-Oct-21 01:59 353 7 gusting 15 27.8
2019-Oct-21 01:54 022 10 gusting 13 27.2
2019-Oct-21 01:49 033 7 gusting 13 27.2
2019-Oct-21 01:44 346 10 gusting 12 26.7
2019-Oct-21 01:39 350 6 gusting 11 27.2
2019-Oct-21 01:34 020 7 gusting 11 27.8
2019-Oct-21 01:29 018 8 gusting 13 27.2
2019-Oct-21 01:24 017 7 gusting 10 27.2
2019-Oct-21 01:19 029 7 gusting 11 26.1
2019-Oct-21 01:14 018 10 gusting 13 25.6
2019-Oct-21 01:09 344 7 gusting 10 25.6
2019-Oct-21 01:04 001 8 gusting 12 25.6
2019-Oct-21 00:59 348 6 gusting 10 26.1
2019-Oct-21 00:49 015 6 gusting 10 26.7
2019-Oct-21 00:44 030 6 gusting 13 26.7
2019-Oct-21 00:39 033 7 gusting 11 26.7
2019-Oct-21 00:34 352 6 gusting 12 26.7
2019-Oct-21 00:29 002 6 gusting 10 26.7
2019-Oct-21 00:24 003 8 gusting 11 26.7
2019-Oct-21 00:19 021 9 gusting 12 27.2
2019-Oct-21 00:14 019 6 gusting 13 26.7
2019-Oct-21 00:09 030 7 gusting 11 26.7
2019-Oct-21 00:04 007 6 gusting 8 26.7
2019-Oct-20 23:59 029 8 gusting 11 26.7
2019-Oct-20 23:54 017 6 gusting 11 26.7
2019-Oct-20 23:49 025 6 gusting 11 26.7
2019-Oct-20 23:44 348 7 gusting 11 26.7
2019-Oct-20 23:39 009 6 gusting 11 26.7
2019-Oct-20 23:34 020 6 gusting 10 26.1
2019-Oct-20 23:29 021 6 gusting 11 26.1
2019-Oct-20 23:24 014 6 gusting 11 26.1
2019-Oct-20 23:19 022 7 gusting 11 26.1
2019-Oct-20 23:14 001 8 gusting 14 26.1
2019-Oct-20 23:09 013 7 gusting 11 25.6
2019-Oct-20 23:04 022 7 gusting 13 25.6
2019-Oct-20 22:59 017 6 gusting 10 25.6
2019-Oct-20 22:54 020 5 gusting 12 25.6
2019-Oct-20 22:49 022 6 gusting 12 25.0
2019-Oct-20 22:44 356 7 gusting 11 25.0
2019-Oct-20 22:39 357 7 gusting 12 24.4
2019-Oct-20 22:34 015 7 gusting 13 24.4
2019-Oct-20 22:29 011 6 gusting 10 24.4
2019-Oct-20 22:24 012 8 gusting 12 24.4
2019-Oct-20 22:19 017 6 gusting 15 24.4
2019-Oct-20 22:14 019 9 gusting 15 24.4
2019-Oct-20 22:09 011 6 gusting 13 24.4
2019-Oct-20 22:04 353 9 gusting 13 24.4
2019-Oct-20 21:59 358 6 gusting 14 23.9
2019-Oct-20 21:54 035 6 gusting 13 24.4
2019-Oct-20 21:49 023 7 gusting 12 24.4
2019-Oct-20 21:44 011 6 gusting 12 24.4
2019-Oct-20 21:39 015 8 gusting 12 24.4
2019-Oct-20 21:34 014 6 gusting 10 24.4
2019-Oct-20 21:29 015 7 gusting 12 23.9
2019-Oct-20 21:24 014 7 gusting 10 23.9
2019-Oct-20 21:19 358 7 gusting 11 23.9
2019-Oct-20 21:14 013 6 gusting 12 23.9
2019-Oct-20 21:09 011 7 gusting 11 23.9
2019-Oct-20 21:04 014 8 gusting 13 23.9
2019-Oct-20 20:59 23.9
2019-Oct-20 20:54 031 7 gusting 10 23.9
2019-Oct-20 20:49 018 7 gusting 12 23.9
2019-Oct-20 20:44 355 7 gusting 12 24.4
2019-Oct-20 20:39 003 8 gusting 12 24.4
2019-Oct-20 20:34 24.4
2019-Oct-20 20:29 025 9 gusting 13 24.4
2019-Oct-20 20:24 005 6 gusting 10 24.4
2019-Oct-20 20:19 008 7 gusting 11 24.4
2019-Oct-20 20:14 018 8 gusting 12 24.4
2019-Oct-20 20:09 024 7 gusting 13 24.4
2019-Oct-20 20:04 348 7 gusting 12 24.4
2019-Oct-20 19:59 020 8 gusting 11 24.4
2019-Oct-20 19:54 016 6 gusting 12 24.4
2019-Oct-20 19:49 354 6 gusting 12 24.4
2019-Oct-20 19:44 005 7 gusting 12 24.4
2019-Oct-20 19:39 019 9 gusting 12 24.4
2019-Oct-20 19:34 008 7 gusting 11 24.4
2019-Oct-20 19:29 357 8 gusting 11 24.4
2019-Oct-20 19:24 022 6 gusting 13 24.4
2019-Oct-20 19:14 031 7 gusting 12 24.4
2019-Oct-20 19:09 016 7 gusting 13 24.4
2019-Oct-20 19:04 030 7 gusting 12 24.4
2019-Oct-20 18:59 340 7 gusting 12 24.4
2019-Oct-20 18:54 24.4
2019-Oct-20 18:49 355 9 gusting 13 24.4
2019-Oct-20 18:44 003 7 gusting 11 24.4
2019-Oct-20 18:39 358 8 gusting 13 24.4
2019-Oct-20 18:34 006 7 gusting 11 24.4
2019-Oct-20 18:29 019 6 gusting 12 24.4
2019-Oct-20 18:24 010 6 gusting 11 24.4
2019-Oct-20 18:19 029 8 gusting 13 24.4
2019-Oct-20 18:14 011 8 gusting 13 24.4
2019-Oct-20 18:09 008 7 gusting 13 24.4
2019-Oct-20 18:04 015 5 gusting 11 24.4
2019-Oct-20 17:59 357 8 gusting 11 24.4
2019-Oct-20 17:54 008 7 gusting 11 24.4
2019-Oct-20 17:49 011 8 gusting 12 24.4
2019-Oct-20 17:44 338 7 gusting 12 24.4
2019-Oct-20 17:39 025 5 gusting 12 24.4
2019-Oct-20 17:34 352 6 gusting 12 24.4
2019-Oct-20 17:29 009 10 gusting 17 24.4
2019-Oct-20 17:24 24.4
2019-Oct-20 17:19 359 7 gusting 13 24.4
2019-Oct-20 17:14 003 7 gusting 12 24.4
2019-Oct-20 17:09 024 7 gusting 13 24.4
2019-Oct-20 17:04 033 7 gusting 12 24.4
2019-Oct-20 16:59 041 7 gusting 12 24.4
2019-Oct-20 16:54 008 7 gusting 12 24.4
2019-Oct-20 16:49 001 7 gusting 8 24.4
2019-Oct-20 16:44 026 7 gusting 10 24.4
2019-Oct-20 16:39 018 7 gusting 14 23.9
2019-Oct-20 16:34 011 8 gusting 12 23.9
2019-Oct-20 16:29 358 8 gusting 11 23.9
2019-Oct-20 16:24 041 8 gusting 12 23.9
2019-Oct-20 16:19 001 8 gusting 17 24.4
2019-Oct-20 16:14 014 11 gusting 14 24.4
2019-Oct-20 16:09 358 8 gusting 13 24.4
2019-Oct-20 16:04 015 6 gusting 13 24.4
2019-Oct-20 15:59 022 7 gusting 13 24.4
2019-Oct-20 15:54 348 7 gusting 12 24.4
2019-Oct-20 15:49 025 6 gusting 12 24.4
2019-Oct-20 15:44 013 6 gusting 13 24.4
2019-Oct-20 15:39 24.4
2019-Oct-20 15:34 019 6 gusting 11 24.4
2019-Oct-20 15:29 022 7 gusting 12 24.4
2019-Oct-20 15:24 026 8 gusting 12 24.4
2019-Oct-20 15:19 034 7 gusting 12 24.4
2019-Oct-20 15:14 24.4
2019-Oct-20 15:09 015 6 gusting 12 24.4
2019-Oct-20 15:04 014 6 gusting 12 24.4
2019-Oct-20 14:59 351 7 gusting 11 24.4
2019-Oct-20 14:54 029 6 gusting 10 24.4
2019-Oct-20 14:49 015 6 gusting 10 24.4
2019-Oct-20 14:44 039 5 gusting 10 24.4
2019-Oct-20 14:39 037 7 gusting 11 24.4
2019-Oct-20 14:34 011 6 gusting 12 24.4
2019-Oct-20 14:29 016 7 gusting 12 24.4
2019-Oct-20 14:24 011 7 gusting 11 24.4
2019-Oct-20 14:19 358 7 gusting 13 24.4
2019-Oct-20 14:14 008 6 gusting 13 24.4
2019-Oct-20 14:09 340 8 gusting 13 24.4
2019-Oct-20 14:04 013 7 gusting 12 24.4
2019-Oct-20 13:59 355 8 gusting 13 24.4
2019-Oct-20 13:54 022 6 gusting 12 24.4
2019-Oct-20 13:49 021 8 gusting 14 24.4
2019-Oct-20 13:44 012 7 gusting 13 24.4
2019-Oct-20 13:39 011 7 gusting 12 24.4
2019-Oct-20 13:34 015 5 gusting 11 24.4
2019-Oct-20 13:29 019 6 gusting 11 24.4
2019-Oct-20 13:24 024 8 gusting 12 24.4
2019-Oct-20 13:19 001 7 gusting 12 24.4
2019-Oct-20 13:14 021 6 gusting 13 24.4
2019-Oct-20 13:09 012 7 gusting 12 24.4
2019-Oct-20 13:04 013 8 gusting 12 23.9
2019-Oct-20 12:59 008 6 gusting 12 23.9
2019-Oct-20 12:54 015 6 gusting 10 23.9
2019-Oct-20 12:49 017 7 gusting 12 23.9
2019-Oct-20 12:44 008 6 gusting 12 23.9
2019-Oct-20 12:39 002 8 gusting 11 23.9
2019-Oct-20 12:34 334 6 gusting 12 23.9
2019-Oct-20 12:29 356 10 gusting 18 23.9
2019-Oct-20 12:24 022 7 gusting 12 23.9
2019-Oct-20 12:19 032 7 gusting 12 23.9
2019-Oct-20 12:14 030 7 gusting 12 23.9
2019-Oct-20 12:09 022 7 gusting 13 23.9
2019-Oct-20 12:04 018 6 gusting 11 23.9
2019-Oct-20 11:59 033 7 gusting 12 23.9
2019-Oct-20 11:54 025 8 gusting 12 23.9
2019-Oct-20 11:49 010 7 gusting 10 24.4
2019-Oct-20 11:44 025 6 gusting 11 24.4
2019-Oct-20 11:39 021 7 gusting 8 24.4
2019-Oct-20 11:34 017 8 gusting 12 24.4
2019-Oct-20 11:29 018 7 gusting 13 24.4
2019-Oct-20 11:24 022 7 gusting 11 24.4
2019-Oct-20 11:19 017 9 gusting 12 24.4
2019-Oct-20 11:14 022 9 gusting 13 24.4
2019-Oct-20 11:09 021 6 gusting 12 24.4
2019-Oct-20 11:04 014 6 gusting 11 24.4
2019-Oct-20 10:59 031 6 gusting 12 24.4
2019-Oct-20 10:54 030 5 gusting 12 25.0
2019-Oct-20 10:49 011 8 gusting 12 25.0
2019-Oct-20 10:44 017 10 gusting 12 25.0
2019-Oct-20 10:39 338 8 gusting 8 25.0
2019-Oct-20 09:59 017 7 gusting 11 25.0
2019-Oct-20 09:54 026 7 gusting 13 25.0
2019-Oct-20 09:49 019 9 gusting 12 25.0
2019-Oct-20 09:44 025 6 gusting 13 25.0
2019-Oct-20 09:39 046 7 gusting 13 25.0
2019-Oct-20 09:34 022 7 gusting 12 25.0
2019-Oct-20 09:29 028 8 gusting 12 25.0
2019-Oct-20 09:24 25.0
2019-Oct-20 09:19 019 9 gusting 12 25.0
2019-Oct-20 09:14 346 6 gusting 13 25.0
2019-Oct-20 09:09 033 7 gusting 12 25.0
2019-Oct-20 09:04 348 9 gusting 15 25.0
2019-Oct-20 08:59 012 8 gusting 13 25.0
2019-Oct-20 08:54 359 10 gusting 17 25.0
2019-Oct-20 08:49 021 8 gusting 13 25.6
2019-Oct-20 08:44 357 7 gusting 13 25.6
2019-Oct-20 08:39 021 9 gusting 13 25.6
2019-Oct-20 08:34 007 8 gusting 13 25.6
2019-Oct-20 08:29 358 7 gusting 14 25.6
2019-Oct-20 08:24 342 9 gusting 13 25.6
2019-Oct-20 08:19 358 6 gusting 12 25.6
2019-Oct-20 08:14 041 8 gusting 14 25.6
2019-Oct-20 08:09 022 10 gusting 14 25.6
2019-Oct-20 08:04 356 11 gusting 14 25.6
2019-Oct-20 07:59 004 6 gusting 12 25.6
2019-Oct-20 07:54 005 8 gusting 12 25.6
2019-Oct-20 07:49 022 7 gusting 12 25.6
2019-Oct-20 07:44 016 10 gusting 14 25.6
2019-Oct-20 07:39 008 9 gusting 15 25.6
2019-Oct-20 07:34 011 10 gusting 13 25.6
2019-Oct-20 07:29 001 9 gusting 13 25.6
2019-Oct-20 07:24 011 8 gusting 13 25.6
2019-Oct-20 07:19 003 8 gusting 13 25.6
2019-Oct-20 07:14 348 7 gusting 13 25.6
2019-Oct-20 07:09 021 7 gusting 13 25.6
2019-Oct-20 07:04 358 10 gusting 13 25.6
2019-Oct-20 06:59 026 8 gusting 13 25.6
2019-Oct-20 06:54 343 8 gusting 13 25.6
2019-Oct-20 06:49 020 8 gusting 12 25.6
2019-Oct-20 06:44 022 9 gusting 12 25.6
2019-Oct-20 06:39 022 6 gusting 12 26.1
2019-Oct-20 06:34 354 9 gusting 14 26.7
2019-Oct-20 06:29 008 11 gusting 15 27.2
2019-Oct-20 06:24 004 9 gusting 15 27.2
2019-Oct-20 06:19 010 10 gusting 12 26.7
2019-Oct-20 06:09 003 9 gusting 13 26.7
2019-Oct-20 06:04 047 10 gusting 13 26.1
2019-Oct-20 06:00 355 7 gusting 11 26.1
2019-Oct-20 05:54 001 9 gusting 13 26.1
2019-Oct-20 05:45 355 8 gusting 9 25.6
2019-Oct-20 05:39 357 10 gusting 12 25.0
2019-Oct-20 05:29 348 9 gusting 17 25.6
2019-Oct-20 05:24 100 7 gusting 14 26.1
2019-Oct-20 05:19 353 12 gusting 15 26.7
2019-Oct-20 05:14 013 11 gusting 15 26.1
2019-Oct-20 05:09 328 10 gusting 13 26.1
2019-Oct-20 05:04 359 11 gusting 15 25.6